Time;durP1;ratioP1;P1;durP2;ratioP2;P2;SDS_P1;SDS_P2;PMS_P1;PMS_P2;Temp;Humidity;BMP_temperature;BMP_pressure;BME280_temperature;BME280_humidity;BME280_pressure;Samples;Min_cycle;Max_cycle;Signal;HPM_P1;HPM_P2
2023/12/15 00:01:06;;;;;;;40.00;13.77;;;;;;;;;;4993403;28;20514;-68
2023/12/15 00:03:52;;;;;;;43.63;14.00;;;;;;;;;;4992887;28;20416;-68
2023/12/15 00:06:37;;;;;;;45.35;14.82;;;;;;;;;;4993570;28;20033;-68
2023/12/15 00:09:23;;;;;;;46.08;14.15;;;;;;;;;;4993747;28;20109;-68
2023/12/15 00:12:09;;;;;;;46.42;13.77;;;;;;;;;;4993467;28;20455;-68
2023/12/15 00:14:54;;;;;;;37.22;13.25;;;;;;;;;;4993581;28;20450;-68
2023/12/15 00:17:40;;;;;;;40.05;13.95;;;;;;;;;;4998739;28;20125;-68
2023/12/15 00:20:26;;;;;;;48.33;14.48;;;;;;;;;;4993058;28;20058;-68
2023/12/15 00:23:12;;;;;;;44.10;14.98;;;;;;;;;;4992686;28;20044;-68
2023/12/15 00:25:57;;;;;;;45.90;14.23;;;;;;;;;;4993022;28;20109;-68
2023/12/15 00:28:43;;;;;;;46.88;15.23;;;;;;;;;;4993427;28;20026;-68
2023/12/15 00:31:29;;;;;;;40.33;13.13;;;;;;;;;;4992438;28;20054;-68
2023/12/15 00:34:14;;;;;;;42.60;14.73;;;;;;;;;;4992484;28;20056;-68
2023/12/15 00:37:00;;;;;;;41.42;14.90;;;;;;;;;;4992753;28;20026;-68
2023/12/15 00:39:47;;;;;;;47.28;14.18;;;;;;;;;;4992298;28;20399;-68
2023/12/15 00:42:32;;;;;;;45.92;13.88;;;;;;;;;;4992614;28;20513;-68
2023/12/15 00:45:18;;;;;;;45.53;14.80;;;;;;;;;;4991873;28;20403;-68
2023/12/15 00:48:04;;;;;;;44.63;13.98;;;;;;;;;;4992236;28;20026;-68
2023/12/15 00:50:49;;;;;;;45.13;13.20;;;;;;;;;;4991970;28;20033;-68
2023/12/15 00:53:35;;;;;;;46.67;14.70;;;;;;;;;;4992877;28;20037;-68
2023/12/15 00:56:21;;;;;;;50.65;14.55;;;;;;;;;;4992972;28;20101;-68
2023/12/15 00:59:06;;;;;;;41.38;13.38;;;;;;;;;;4992709;28;20023;-68
2023/12/15 01:01:52;;;;;;;43.40;14.75;;;;;;;;;;5009211;28;20030;-68
2023/12/15 01:04:38;;;;;;;39.17;14.07;;;;;;;;;;5010721;28;20526;-68
2023/12/15 01:07:23;;;;;;;44.40;13.65;;;;;;;;;;5011273;28;20026;-68
2023/12/15 01:10:09;;;;;;;53.92;14.90;;;;;;;;;;5011510;28;20105;-68
2023/12/15 01:12:54;;;;;;;47.17;15.93;;;;;;;;;;5011743;23;20040;-72
2023/12/15 01:15:40;;;;;;;52.05;15.27;;;;;;;;;;5051021;28;20033;-72
2023/12/15 01:18:26;;;;;;;44.35;14.07;;;;;;;;;;5051573;28;20078;-72
2023/12/15 01:21:11;;;;;;;46.05;15.27;;;;;;;;;;5034879;28;20088;-72
2023/12/15 01:23:57;;;;;;;50.00;16.20;;;;;;;;;;5031622;28;20022;-72
2023/12/15 01:26:42;;;;;;;44.08;14.07;;;;;;;;;;5031129;28;20029;-72
2023/12/15 01:29:28;;;;;;;42.95;13.80;;;;;;;;;;5031055;28;20033;-72
2023/12/15 01:32:14;;;;;;;57.50;14.45;;;;;;;;;;5032374;28;20013;-72
2023/12/15 01:34:59;;;;;;;59.88;16.60;;;;;;;;;;5030185;28;20064;-72
2023/12/15 01:37:45;;;;;;;48.90;14.13;;;;;;;;;;5049545;28;20032;-72
2023/12/15 01:40:30;;;;;;;39.33;12.15;;;;;;;;;;5049959;28;20025;-72
2023/12/15 01:43:16;;;;;;;46.90;13.15;;;;;;;;;;5050327;28;20063;-72
2023/12/15 01:46:02;;;;;;;46.65;15.48;;;;;;;;;;5049844;28;20558;-71
2023/12/15 01:48:48;;;;;;;46.88;16.00;;;;;;;;;;5050799;28;20110;-70
2023/12/15 01:51:33;;;;;;;45.65;15.88;;;;;;;;;;5050690;28;20021;-70
2023/12/15 01:54:19;;;;;;;55.38;17.40;;;;;;;;;;5050926;28;20036;-70
2023/12/15 01:57:06;;;;;;;42.42;13.80;;;;;;;;;;5053132;28;20029;-70
2023/12/15 01:59:52;;;;;;;46.83;15.13;;;;;;;;;;5054215;28;20067;-70
2023/12/15 02:02:37;;;;;;;51.65;14.50;;;;;;;;;;5045162;28;20024;-70
2023/12/15 02:05:23;;;;;;;45.30;14.13;;;;;;;;;;5050812;28;20036;-70
2023/12/15 02:08:09;;;;;;;47.95;14.70;;;;;;;;;;5047095;28;20028;-70
2023/12/15 02:10:54;;;;;;;42.92;12.40;;;;;;;;;;5038532;28;20052;-70
2023/12/15 02:13:40;;;;;;;45.45;14.18;;;;;;;;;;5054924;28;20033;-70
2023/12/15 02:16:25;;;;;;;41.40;14.98;;;;;;;;;;5045291;28;20513;-70
2023/12/15 02:19:11;;;;;;;37.55;12.30;;;;;;;;;;5051889;28;20029;-70
2023/12/15 02:21:57;;;;;;;41.45;13.00;;;;;;;;;;5053457;28;20021;-70
2023/12/15 02:24:42;;;;;;;47.35;13.55;;;;;;;;;;5053582;28;20029;-70
2023/12/15 02:27:28;;;;;;;40.72;14.48;;;;;;;;;;5053212;28;20455;-70
2023/12/15 02:30:14;;;;;;;46.75;14.75;;;;;;;;;;5053125;28;20044;-70
2023/12/15 02:32:59;;;;;;;45.00;14.43;;;;;;;;;;5053538;28;20067;-70
2023/12/15 02:35:50;;;;;;;52.35;15.50;;;;;;;;;;5044326;28;20522;-70
2023/12/15 02:38:35;;;;;;;39.63;12.50;;;;;;;;;;5054048;28;20025;-70
2023/12/15 02:41:21;;;;;;;51.40;14.38;;;;;;;;;;5053130;28;20017;-71
2023/12/15 02:44:07;;;;;;;48.17;13.63;;;;;;;;;;5054066;28;20079;-70
2023/12/15 02:46:52;;;;;;;51.40;15.13;;;;;;;;;;5051732;28;20028;-71
2023/12/15 02:49:38;;;;;;;49.92;15.20;;;;;;;;;;5048725;28;20381;-70
2023/12/15 02:52:24;;;;;;;43.90;13.13;;;;;;;;;;5043073;28;20079;-70
2023/12/15 02:55:12;;;;;;;39.55;11.80;;;;;;;;;;5034498;28;20029;-70
2023/12/15 02:57:58;;;;;;;38.83;11.60;;;;;;;;;;5033488;28;20025;-70
2023/12/15 03:00:44;;;;;;;39.75;11.80;;;;;;;;;;5033999;28;20057;-70
2023/12/15 03:03:30;;;;;;;34.10;10.85;;;;;;;;;;5040299;28;20104;-70
2023/12/15 03:06:15;;;;;;;33.05;11.40;;;;;;;;;;5053136;28;20024;-70
2023/12/15 03:09:01;;;;;;;35.13;11.05;;;;;;;;;;5053998;28;20021;-70
2023/12/15 03:11:47;;;;;;;34.47;10.23;;;;;;;;;;5054789;28;20032;-70
2023/12/15 03:14:32;;;;;;;36.13;10.75;;;;;;;;;;5053002;28;20054;-70
2023/12/15 03:17:18;;;;;;;35.42;12.32;;;;;;;;;;5052034;28;20075;-70
2023/12/15 03:20:06;;;;;;;34.28;9.70;;;;;;;;;;5053155;28;20079;-70
2023/12/15 03:22:53;;;;;;;44.03;12.95;;;;;;;;;;5040161;28;20103;-70
2023/12/15 03:25:38;;;;;;;41.25;13.02;;;;;;;;;;5032648;28;20449;-70
2023/12/15 03:28:24;;;;;;;48.47;12.80;;;;;;;;;;5041146;28;20036;-70
2023/12/15 03:31:10;;;;;;;48.88;12.57;;;;;;;;;;5033019;28;20017;-70
2023/12/15 03:33:55;;;;;;;39.33;11.77;;;;;;;;;;5043467;28;20071;-71
2023/12/15 03:36:41;;;;;;;49.13;12.38;;;;;;;;;;5052027;28;20393;-70
2023/12/15 03:39:26;;;;;;;40.67;12.07;;;;;;;;;;5052310;28;20013;-70
2023/12/15 03:42:12;;;;;;;39.92;12.23;;;;;;;;;;5052215;28;20021;-70
2023/12/15 03:44:58;;;;;;;48.03;13.00;;;;;;;;;;5051633;28;20024;-70
2023/12/15 03:47:43;;;;;;;48.60;14.52;;;;;;;;;;5037889;28;20062;-70
2023/12/15 03:50:29;;;;;;;47.80;13.07;;;;;;;;;;5031754;28;20021;-70
2023/12/15 03:53:15;;;;;;;40.72;13.93;;;;;;;;;;5046813;28;20025;-70
2023/12/15 03:56:00;;;;;;;48.85;13.57;;;;;;;;;;5038645;28;20031;-70
2023/12/15 03:58:46;;;;;;;45.88;14.75;;;;;;;;;;5051422;28;20104;-70
2023/12/15 04:01:31;;;;;;;54.60;14.88;;;;;;;;;;5046151;28;20490;-71
2023/12/15 04:04:17;;;;;;;54.70;15.18;;;;;;;;;;5032575;28;20021;-70
2023/12/15 04:07:03;;;;;;;46.50;13.32;;;;;;;;;;5032714;28;20108;-70
2023/12/15 04:09:49;;;;;;;41.53;13.95;;;;;;;;;;5052894;28;20507;-70
2023/12/15 04:12:34;;;;;;;47.47;14.35;;;;;;;;;;5051153;28;20025;-70
2023/12/15 04:15:20;;;;;;;41.22;16.00;;;;;;;;;;5053076;28;20124;-70
2023/12/15 04:18:06;;;;;;;40.90;13.10;;;;;;;;;;5050818;28;20025;-70
2023/12/15 04:20:52;;;;;;;44.15;15.30;;;;;;;;;;5051275;28;20021;-70
2023/12/15 04:23:37;;;;;;;48.20;14.40;;;;;;;;;;5031514;28;20036;-70
2023/12/15 04:26:23;;;;;;;52.17;14.60;;;;;;;;;;5032722;28;20067;-70
2023/12/15 04:29:09;;;;;;;51.83;15.75;;;;;;;;;;5031660;28;20116;-70
2023/12/15 04:31:54;;;;;;;40.80;13.85;;;;;;;;;;5030591;28;20022;-70
2023/12/15 04:34:40;;;;;;;55.08;14.75;;;;;;;;;;5047019;28;20067;-70
2023/12/15 04:37:26;;;;;;;54.63;14.43;;;;;;;;;;5048578;28;20112;-70
2023/12/15 04:40:14;;;;;;;54.38;15.75;;;;;;;;;;5050981;28;20409;-70
2023/12/15 04:43:00;;;;;;;54.25;15.80;;;;;;;;;;5031728;28;20029;-70
2023/12/15 04:45:46;;;;;;;53.55;15.50;;;;;;;;;;5031226;28;20018;-70
2023/12/15 04:48:32;;;;;;;58.83;15.40;;;;;;;;;;5041197;28;20516;-70
2023/12/15 04:51:18;;;;;;;51.88;15.07;;;;;;;;;;5051425;28;20402;-70
2023/12/15 04:54:03;;;;;;;56.05;16.33;;;;;;;;;;5051266;28;20087;-70
2023/12/15 04:56:49;;;;;;;49.40;14.13;;;;;;;;;;5052373;28;20415;-70
2023/12/15 04:59:39;;;;;;;57.83;16.77;;;;;;;;;;5049641;28;20028;-70
2023/12/15 05:02:25;;;;;;;60.17;15.93;;;;;;;;;;5051806;28;20028;-70
2023/12/15 05:05:11;;;;;;;51.50;15.20;;;;;;;;;;5050536;28;20028;-70
2023/12/15 05:07:56;;;;;;;49.70;15.05;;;;;;;;;;5030961;28;20516;-70
2023/12/15 05:10:42;;;;;;;48.28;14.10;;;;;;;;;;5034572;28;20390;-70
2023/12/15 05:13:28;;;;;;;47.45;12.65;;;;;;;;;;5032798;28;20037;-70
2023/12/15 05:16:14;;;;;;;42.22;13.05;;;;;;;;;;5031503;28;20021;-70
2023/12/15 05:18:59;;;;;;;45.90;12.85;;;;;;;;;;5030749;28;20053;-70
2023/12/15 05:21:45;;;;;;;57.08;14.30;;;;;;;;;;5031748;28;20030;-70
2023/12/15 05:24:34;;;;;;;43.67;13.73;;;;;;;;;;5047676;28;20391;-70
2023/12/15 05:27:19;;;;;;;48.85;12.88;;;;;;;;;;5045475;28;20022;-70
2023/12/15 05:30:06;;;;;;;62.40;14.73;;;;;;;;;;5032730;28;20029;-70
2023/12/15 05:32:51;;;;;;;57.70;15.48;;;;;;;;;;5036019;28;20076;-70
2023/12/15 05:35:37;;;;;;;54.58;13.38;;;;;;;;;;5048049;28;20191;-70
2023/12/15 05:38:23;;;;;;;50.67;13.98;;;;;;;;;;5035454;28;20025;-70
2023/12/15 05:41:08;;;;;;;48.25;14.18;;;;;;;;;;5034457;28;20105;-70
2023/12/15 05:43:54;;;;;;;50.92;13.57;;;;;;;;;;5034629;28;20079;-70
2023/12/15 05:46:42;;;;;;;51.85;14.52;;;;;;;;;;5034427;28;20025;-70
2023/12/15 05:49:28;;;;;;;47.50;13.02;;;;;;;;;;5036345;28;20025;-70
2023/12/15 05:52:14;;;;;;;49.22;12.50;;;;;;;;;;5034792;28;20025;-70
2023/12/15 05:55:00;;;;;;;43.17;12.13;;;;;;;;;;5033877;28;20026;-70
2023/12/15 05:57:45;;;;;;;42.58;11.93;;;;;;;;;;5034194;28;20029;-70
2023/12/15 06:00:31;;;;;;;49.78;13.38;;;;;;;;;;5050004;28;20525;-70
2023/12/15 06:03:17;;;;;;;43.92;12.98;;;;;;;;;;5053680;28;20021;-70
2023/12/15 06:06:02;;;;;;;45.60;14.18;;;;;;;;;;5054669;28;20640;-70
2023/12/15 06:08:48;;;;;;;43.47;12.98;;;;;;;;;;5051075;28;20032;-70
2023/12/15 06:11:39;;;;;;;44.78;12.73;;;;;;;;;;5041645;28;20096;-70
2023/12/15 06:14:26;;;;;;;47.35;12.75;;;;;;;;;;5050960;28;20632;-70
2023/12/15 06:17:11;;;;;;;46.72;12.35;;;;;;;;;;5051750;28;20021;-70
2023/12/15 06:19:57;;;;;;;49.63;12.43;;;;;;;;;;5039953;28;20025;-70
2023/12/15 06:22:43;;;;;;;40.40;11.60;;;;;;;;;;5034130;28;20521;-70
2023/12/15 06:25:28;;;;;;;43.92;14.85;;;;;;;;;;5034106;28;20029;-70
2023/12/15 06:28:14;;;;;;;53.22;12.50;;;;;;;;;;5036626;28;21314;-70
2023/12/15 06:31:00;;;;;;;38.85;11.60;;;;;;;;;;5053440;28;20404;-70
2023/12/15 06:33:45;;;;;;;48.20;12.25;;;;;;;;;;5052742;28;20104;-70
2023/12/15 06:36:31;;;;;;;41.40;11.85;;;;;;;;;;5054762;28;20379;-70
2023/12/15 06:39:17;;;;;;;40.85;11.15;;;;;;;;;;5052731;28;20078;-70
2023/12/15 06:42:02;;;;;;;34.92;10.95;;;;;;;;;;5043494;28;20063;-70
2023/12/15 06:44:48;;;;;;;38.50;10.80;;;;;;;;;;5053505;28;20401;-70
2023/12/15 06:47:36;;;;;;;41.00;10.57;;;;;;;;;;5039761;28;20026;-70
2023/12/15 06:50:21;;;;;;;35.88;10.57;;;;;;;;;;5046480;28;20048;-70
2023/12/15 06:53:07;;;;;;;36.78;10.30;;;;;;;;;;5042729;28;20099;-70
2023/12/15 06:55:53;;;;;;;40.78;10.18;;;;;;;;;;5033651;28;20022;-70
2023/12/15 06:58:38;;;;;;;42.72;10.43;;;;;;;;;;5042600;28;20104;-70
2023/12/15 07:01:24;;;;;;;35.92;10.63;;;;;;;;;;5053291;28;20014;-70
2023/12/15 07:04:10;;;;;;;39.33;11.02;;;;;;;;;;5052925;28;20021;-70
2023/12/15 07:06:55;;;;;;;32.15;10.45;;;;;;;;;;5053002;28;20409;-70
2023/12/15 07:09:41;;;;;;;38.40;9.18;;;;;;;;;;5049123;28;20116;-70
2023/12/15 07:12:26;;;;;;;31.00;8.82;;;;;;;;;;5052557;28;20028;-70
2023/12/15 07:15:12;;;;;;;30.20;9.15;;;;;;;;;;5050937;28;20055;-70
2023/12/15 07:17:58;;;;;;;27.42;8.70;;;;;;;;;;5053019;28;20024;-70
2023/12/15 07:20:43;;;;;;;32.42;8.52;;;;;;;;;;5037260;28;20476;-70
2023/12/15 07:23:29;;;;;;;18.58;6.85;;;;;;;;;;5054720;28;20021;-70
2023/12/15 07:26:17;;;;;;;27.17;8.60;;;;;;;;;;5052578;28;20032;-70
2023/12/15 07:29:03;;;;;;;19.77;6.68;;;;;;;;;;5038469;28;20086;-70
2023/12/15 07:31:49;;;;;;;19.17;7.05;;;;;;;;;;5053941;28;20017;-70
2023/12/15 07:34:35;;;;;;;21.27;7.07;;;;;;;;;;5052286;28;20025;-70
2023/12/15 07:37:21;;;;;;;20.05;7.88;;;;;;;;;;5051296;28;20647;-70
2023/12/15 07:40:07;;;;;;;20.55;7.80;;;;;;;;;;5053784;28;20032;-70
2023/12/15 07:42:52;;;;;;;25.10;8.23;;;;;;;;;;5042467;28;20490;-70
2023/12/15 07:45:38;;;;;;;30.50;8.48;;;;;;;;;;5051763;28;20056;-70
2023/12/15 07:48:24;;;;;;;33.50;7.50;;;;;;;;;;5051976;28;20441;-70
2023/12/15 07:51:16;;;;;;;20.42;6.50;;;;;;;;;;5052791;28;20394;-70
2023/12/15 07:54:02;;;;;;;41.63;7.47;;;;;;;;;;5050660;28;20068;-70
2023/12/15 07:56:48;;;;;;;12.98;4.72;;;;;;;;;;5051510;28;20025;-71
2023/12/15 07:59:34;;;;;;;12.23;4.70;;;;;;;;;;5051477;28;20036;-70
2023/12/15 08:02:21;;;;;;;9.15;4.30;;;;;;;;;;5050913;28;20021;-69
2023/12/15 08:05:07;;;;;;;9.80;4.05;;;;;;;;;;5051634;28;20086;-70
2023/12/15 08:07:52;;;;;;;23.52;4.97;;;;;;;;;;5051683;28;20029;-71
2023/12/15 08:10:38;;;;;;;11.93;4.88;;;;;;;;;;5052392;28;20029;-71
2023/12/15 08:13:24;;;;;;;9.05;3.72;;;;;;;;;;5053194;28;20086;-70
2023/12/15 08:16:10;;;;;;;9.43;4.10;;;;;;;;;;5052131;28;20051;-70
2023/12/15 08:18:57;;;;;;;8.52;3.80;;;;;;;;;;5050456;28;20025;-70
2023/12/15 08:21:42;;;;;;;10.27;4.00;;;;;;;;;;5043434;28;20029;-70
2023/12/15 08:24:28;;;;;;;10.07;4.30;;;;;;;;;;5032608;28;20029;-70
2023/12/15 08:27:16;;;;;;;16.58;4.75;;;;;;;;;;5031709;28;20021;-70
2023/12/15 08:30:01;;;;;;;10.52;4.43;;;;;;;;;;5032296;28;20025;-70
2023/12/15 08:32:48;;;;;;;12.13;5.30;;;;;;;;;;5034195;28;20136;-70
2023/12/15 08:35:34;;;;;;;14.60;4.68;;;;;;;;;;5048124;28;20021;-70
2023/12/15 08:38:19;;;;;;;12.98;4.57;;;;;;;;;;5032809;28;20022;-70
2023/12/15 08:41:06;;;;;;;14.15;4.97;;;;;;;;;;5038347;28;20017;-70
2023/12/15 08:43:52;;;;;;;17.48;5.43;;;;;;;;;;5049041;28;20088;-70
2023/12/15 08:46:37;;;;;;;15.77;4.78;;;;;;;;;;5048983;28;20033;-71
2023/12/15 08:49:23;;;;;;;13.70;4.00;;;;;;;;;;5050800;28;20047;-71
2023/12/15 08:52:09;;;;;;;20.98;4.47;;;;;;;;;;5050405;28;20013;-70
2023/12/15 08:54:54;;;;;;;19.13;4.20;;;;;;;;;;5050431;28;20029;-70
2023/12/15 08:57:40;;;;;;;18.35;4.30;;;;;;;;;;5051904;28;20017;-70
2023/12/15 09:00:26;;;;;;;24.95;4.53;;;;;;;;;;5030431;28;20022;-70
2023/12/15 09:03:11;;;;;;;18.42;4.30;;;;;;;;;;5030767;28;20505;-70
2023/12/15 09:05:57;;;;;;;21.13;4.20;;;;;;;;;;5031381;28;20026;-70
2023/12/15 09:08:42;;;;;;;20.13;4.50;;;;;;;;;;5031691;28;20022;-70
2023/12/15 09:11:28;;;;;;;19.25;3.95;;;;;;;;;;5048401;28;20116;-70
2023/12/15 09:14:15;;;;;;;19.48;3.92;;;;;;;;;;5050364;28;20060;-70
2023/12/15 09:17:01;;;;;;;20.67;3.60;;;;;;;;;;5037225;28;20033;-70
2023/12/15 09:19:47;;;;;;;25.88;4.32;;;;;;;;;;5031436;28;20451;-72
2023/12/15 09:22:32;;;;;;;20.30;3.72;;;;;;;;;;5030908;28;20028;-72
2023/12/15 09:25:18;;;;;;;23.08;3.97;;;;;;;;;;5030760;28;20029;-72
2023/12/15 09:28:05;;;;;;;19.65;4.88;;;;;;;;;;5034921;28;20079;-72
2023/12/15 09:30:50;;;;;;;30.15;4.85;;;;;;;;;;5051360;28;20025;-72
2023/12/15 09:33:36;;;;;;;29.00;4.80;;;;;;;;;;5048735;28;20052;-72
2023/12/15 09:36:23;;;;;;;33.97;4.68;;;;;;;;;;5049082;28;20033;-72
2023/12/15 09:39:09;;;;;;;28.52;4.60;;;;;;;;;;5031135;28;20511;-72
2023/12/15 09:41:55;;;;;;;22.55;4.05;;;;;;;;;;5032484;28;20405;-72
2023/12/15 09:44:40;;;;;;;36.17;4.57;;;;;;;;;;5031820;28;20123;-73
2023/12/15 09:47:28;;;;;;;19.88;4.03;;;;;;;;;;5034852;28;20049;-73
2023/12/15 09:50:16;;;;;;;25.55;3.97;;;;;;;;;;5049264;28;20029;-73
2023/12/15 09:53:02;;;;;;;27.48;4.40;;;;;;;;;;5048471;28;20036;-74
2023/12/15 09:55:50;;;;;;;51.80;5.72;;;;;;;;;;5048416;28;20021;-73
2023/12/15 09:58:36;;;;;;;27.92;4.28;;;;;;;;;;5046827;28;20086;-73
2023/12/15 10:01:22;;;;;;;24.30;5.78;;;;;;;;;;5044439;28;20032;-73
2023/12/15 10:04:08;;;;;;;23.73;3.33;;;;;;;;;;5031215;28;20032;-73
2023/12/15 10:06:53;;;;;;;30.73;6.07;;;;;;;;;;5049302;28;20402;-73
2023/12/15 10:09:39;;;;;;;20.30;3.85;;;;;;;;;;5049582;28;20091;-73
2023/12/15 10:12:25;;;;;;;28.77;4.93;;;;;;;;;;5036857;28;20038;-73
2023/12/15 10:15:11;;;;;;;20.15;3.53;;;;;;;;;;5030628;28;20562;-73
2023/12/15 10:17:57;;;;;;;21.60;4.10;;;;;;;;;;5018629;28;20033;-75
2023/12/15 10:20:43;;;;;;;54.63;5.53;;;;;;;;;;5033608;28;20029;-73
2023/12/15 10:23:37;;;;;;;22.02;4.68;;;;;;;;;;5046896;28;20502;-72
2023/12/15 10:26:23;;;;;;;28.60;4.43;;;;;;;;;;5054096;28;20051;-73
2023/12/15 10:29:08;;;;;;;38.83;5.07;;;;;;;;;;5053639;28;20490;-72
2023/12/15 10:31:54;;;;;;;27.52;3.97;;;;;;;;;;5052607;28;20052;-73
2023/12/15 10:34:40;;;;;;;36.08;4.55;;;;;;;;;;5053599;28;20389;-73
2023/12/15 10:37:26;;;;;;;24.60;4.40;;;;;;;;;;5050446;28;20021;-73
2023/12/15 10:40:12;;;;;;;30.58;5.20;;;;;;;;;;5053221;28;20509;-72
2023/12/15 10:42:59;;;;;;;18.80;4.18;;;;;;;;;;5053373;28;20028;-73
2023/12/15 10:45:45;;;;;;;34.13;4.13;;;;;;;;;;5052488;28;20025;-73
2023/12/15 10:48:30;;;;;;;18.45;4.13;;;;;;;;;;5053900;28;20032;-73
2023/12/15 10:51:16;;;;;;;29.48;4.53;;;;;;;;;;5053120;28;20490;-74
2023/12/15 10:54:03;;;;;;;26.83;4.97;;;;;;;;;;5053530;28;20055;-74
2023/12/15 10:56:51;;;;;;;27.70;3.92;;;;;;;;;;5052211;28;20027;-74
2023/12/15 10:59:39;;;;;;;20.42;3.28;;;;;;;;;;5052483;28;20025;-72
2023/12/15 11:02:27;;;;;;;23.35;4.18;;;;;;;;;;5053238;28;20060;-71
2023/12/15 11:05:15;;;;;;;17.63;3.95;;;;;;;;;;5051468;28;20025;-74
2023/12/15 11:08:01;;;;;;;23.02;3.58;;;;;;;;;;5052368;28;20099;-74
2023/12/15 11:10:50;;;;;;;25.52;3.55;;;;;;;;;;5051860;28;20436;-74
2023/12/15 11:14:01;;;;;;;31.08;4.05;;;;;;;;;;5032396;28;20068;-74
2023/12/15 11:16:47;;;;;;;27.08;3.53;;;;;;;;;;5048331;28;20029;-74
2023/12/15 11:19:33;;;;;;;12.85;3.65;;;;;;;;;;5044408;28;20028;-74
2023/12/15 11:22:21;;;;;;;20.85;3.92;;;;;;;;;;5042524;28;20168;-74
2023/12/15 11:25:08;;;;;;;18.27;3.42;;;;;;;;;;5053337;28;20560;-74
2023/12/15 11:27:58;;;;;;;16.55;3.65;;;;;;;;;;5051910;28;20108;-74
2023/12/15 11:30:48;;;;;;;17.80;4.13;;;;;;;;;;5034375;28;20108;-74
2023/12/15 11:33:36;;;;;;;14.95;3.67;;;;;;;;;;5039347;28;20021;-74
2023/12/15 11:36:22;;;;;;;19.88;3.33;;;;;;;;;;5052677;28;20044;-74
2023/12/15 11:39:12;;;;;;;26.98;3.58;;;;;;;;;;5052605;28;20555;-74
2023/12/15 11:41:59;;;;;;;22.70;4.28;;;;;;;;;;5038029;28;20021;-74
2023/12/15 11:44:45;;;;;;;20.13;3.92;;;;;;;;;;5052487;28;20435;-74
2023/12/15 11:47:32;;;;;;;20.63;3.95;;;;;;;;;;5054020;28;20067;-74
2023/12/15 11:50:19;;;;;;;32.13;3.53;;;;;;;;;;5052063;28;20481;-73
2023/12/15 11:53:05;;;;;;;18.77;3.15;;;;;;;;;;5052315;28;20065;-74
2023/12/15 11:55:52;;;;;;;26.13;4.05;;;;;;;;;;5041121;28;20033;-74
2023/12/15 11:58:38;;;;;;;17.13;4.13;;;;;;;;;;5052093;28;20031;-74
2023/12/15 12:01:23;;;;;;;15.63;4.40;;;;;;;;;;5052210;28;20445;-74
2023/12/15 12:04:18;;;;;;;15.95;3.15;;;;;;;;;;5053400;28;20099;-74
2023/12/15 12:07:04;;;;;;;21.75;3.72;;;;;;;;;;5051980;28;20107;-74
2023/12/15 12:09:50;;;;;;;19.48;3.58;;;;;;;;;;5051831;28;20048;-74
2023/12/15 12:12:37;;;;;;;20.88;4.30;;;;;;;;;;5052261;28;20108;-74
2023/12/15 12:15:23;;;;;;;84.25;24.95;;;;;;;;;;5050435;28;20100;-74
2023/12/15 12:18:08;;;;;;;25.35;8.50;;;;;;;;;;5052714;28;20021;-74
2023/12/15 12:20:56;;;;;;;28.90;7.20;;;;;;;;;;5051675;28;20122;-74
2023/12/15 12:23:41;;;;;;;31.27;10.48;;;;;;;;;;5051087;28;20037;-74
2023/12/15 12:26:28;;;;;;;26.92;4.85;;;;;;;;;;5049313;28;20036;-74
2023/12/15 12:29:14;;;;;;;20.65;5.38;;;;;;;;;;5033428;28;20460;-74
2023/12/15 12:31:59;;;;;;;23.55;3.90;;;;;;;;;;5051794;28;20021;-74
2023/12/15 12:34:45;;;;;;;29.30;5.45;;;;;;;;;;5052311;28;20545;-74
2023/12/15 12:37:31;;;;;;;15.68;3.95;;;;;;;;;;5034513;28;20383;-74
2023/12/15 12:40:17;;;;;;;25.02;3.92;;;;;;;;;;5036857;28;20502;-74
2023/12/15 12:43:03;;;;;;;21.90;3.15;;;;;;;;;;5050389;28;20079;-74
2023/12/15 12:45:49;;;;;;;22.95;3.25;;;;;;;;;;5048094;28;20025;-74
2023/12/15 12:48:35;;;;;;;27.52;4.03;;;;;;;;;;5030866;28;20091;-73
2023/12/15 12:51:20;;;;;;;8.27;2.70;;;;;;;;;;5030937;28;20029;-73
2023/12/15 12:54:06;;;;;;;21.73;4.15;;;;;;;;;;5034670;28;20028;-73
2023/12/15 12:56:52;;;;;;;19.08;4.60;;;;;;;;;;5053178;28;20059;-73
2023/12/15 12:59:41;;;;;;;14.73;3.20;;;;;;;;;;5050446;28;20509;-73
2023/12/15 13:02:26;;;;;;;18.17;3.58;;;;;;;;;;5049245;28;20052;-73
2023/12/15 13:05:12;;;;;;;23.52;3.65;;;;;;;;;;5050951;28;20025;-73
2023/12/15 13:07:58;;;;;;;33.75;4.80;;;;;;;;;;5036616;28;20025;-73
2023/12/15 13:10:43;;;;;;;30.73;3.72;;;;;;;;;;5031039;28;20074;-73
2023/12/15 13:13:29;;;;;;;19.75;3.83;;;;;;;;;;5045371;28;20025;-73
2023/12/15 13:16:15;;;;;;;16.88;3.45;;;;;;;;;;5052524;28;20091;-73
2023/12/15 13:19:01;;;;;;;21.10;3.30;;;;;;;;;;5036663;28;20119;-73
2023/12/15 13:21:47;;;;;;;24.17;3.90;;;;;;;;;;5050872;28;20021;-73
2023/12/15 13:24:33;;;;;;;20.98;3.92;;;;;;;;;;5050525;28;20021;-73
2023/12/15 13:27:18;;;;;;;21.90;2.45;;;;;;;;;;5050517;28;20437;-73
2023/12/15 13:30:05;;;;;;;24.38;3.83;;;;;;;;;;5052718;28;20029;-73
2023/12/15 13:32:50;;;;;;;18.27;3.05;;;;;;;;;;5050519;28;20017;-73
2023/12/15 13:35:36;;;;;;;20.17;2.58;;;;;;;;;;5049487;28;20502;-73
2023/12/15 13:38:22;;;;;;;22.08;3.67;;;;;;;;;;5050521;28;20083;-73
2023/12/15 13:41:07;;;;;;;21.48;3.67;;;;;;;;;;5049517;28;20079;-73
2023/12/15 13:43:53;;;;;;;19.02;2.85;;;;;;;;;;5050500;28;20039;-73
2023/12/15 13:46:38;;;;;;;17.55;4.00;;;;;;;;;;5035478;28;20025;-73
2023/12/15 13:49:24;;;;;;;14.63;4.50;;;;;;;;;;5031019;28;20025;-74
2023/12/15 13:52:11;;;;;;;16.92;4.05;;;;;;;;;;5035751;28;20025;-73
2023/12/15 13:54:57;;;;;;;56.58;14.50;;;;;;;;;;5056063;28;20386;-73
2023/12/15 13:57:43;;;;;;;31.17;6.75;;;;;;;;;;5054130;28;20025;-73
2023/12/15 14:00:29;;;;;;;25.00;5.80;;;;;;;;;;5054106;28;20114;-73
2023/12/15 14:03:15;;;;;;;26.85;5.55;;;;;;;;;;5053950;28;20024;-73
2023/12/15 14:06:00;;;;;;;36.97;8.10;;;;;;;;;;5055815;28;20082;-73
2023/12/15 14:08:46;;;;;;;33.13;6.13;;;;;;;;;;5053971;28;20567;-74
2023/12/15 14:11:33;;;;;;;22.77;4.47;;;;;;;;;;5039900;28;20025;-73
2023/12/15 14:14:18;;;;;;;35.83;10.13;;;;;;;;;;5034229;28;20033;-73
2023/12/15 14:17:06;;;;;;;40.65;10.48;;;;;;;;;;5052349;28;20342;-73
2023/12/15 14:19:51;;;;;;;32.72;8.57;;;;;;;;;;5046204;28;20025;-73
2023/12/15 14:22:37;;;;;;;32.95;7.63;;;;;;;;;;5034537;28;20014;-73
2023/12/15 14:25:24;;;;;;;36.97;9.77;;;;;;;;;;5035068;28;20032;-73
2023/12/15 14:28:10;;;;;;;30.52;7.95;;;;;;;;;;5034591;28;20021;-73
2023/12/15 14:30:56;;;;;;;30.85;6.97;;;;;;;;;;5033043;28;20053;-73
2023/12/15 14:33:41;;;;;;;33.80;10.82;;;;;;;;;;5052592;28;20475;-74
2023/12/15 14:36:27;;;;;;;31.35;7.80;;;;;;;;;;5053144;28;20406;-73
2023/12/15 14:39:13;;;;;;;21.45;4.65;;;;;;;;;;5042612;28;20017;-75
2023/12/15 14:41:59;;;;;;;26.95;7.60;;;;;;;;;;5051847;28;20013;-74
2023/12/15 14:44:44;;;;;;;24.20;7.10;;;;;;;;;;5050972;28;20351;-74
2023/12/15 14:47:30;;;;;;;23.02;5.78;;;;;;;;;;5049570;28;20033;-74
2023/12/15 14:50:16;;;;;;;29.10;9.30;;;;;;;;;;5033228;28;20029;-74
2023/12/15 14:53:02;;;;;;;24.20;6.38;;;;;;;;;;5017859;28;20022;-74
2023/12/15 14:55:47;;;;;;;23.83;4.18;;;;;;;;;;5034691;28;20028;-71
2023/12/15 14:58:33;;;;;;;30.80;7.72;;;;;;;;;;5037192;28;20017;-71
2023/12/15 15:01:19;;;;;;;34.75;9.05;;;;;;;;;;5053293;28;20036;-71
2023/12/15 15:04:04;;;;;;;25.02;8.55;;;;;;;;;;5031242;28;20384;-71
2023/12/15 15:06:50;;;;;;;22.67;5.50;;;;;;;;;;5033214;28;20143;-74
2023/12/15 15:09:36;;;;;;;27.75;5.25;;;;;;;;;;5034346;28;20529;-74
2023/12/15 15:12:22;;;;;;;18.33;4.70;;;;;;;;;;5033514;28;20029;-74
2023/12/15 15:15:08;;;;;;;23.15;4.22;;;;;;;;;;5050103;28;20110;-73
2023/12/15 15:17:54;;;;;;;16.63;5.75;;;;;;;;;;5050670;28;20017;-73
2023/12/15 15:20:39;;;;;;;21.08;6.43;;;;;;;;;;5052943;28;20029;-73
2023/12/15 15:23:25;;;;;;;22.00;6.95;;;;;;;;;;5042423;28;20029;-73
2023/12/15 15:26:10;;;;;;;22.80;4.60;;;;;;;;;;5044242;28;20056;-73
2023/12/15 15:28:57;;;;;;;38.92;10.38;;;;;;;;;;5038206;28;20467;-73
2023/12/15 15:31:42;;;;;;;22.13;6.53;;;;;;;;;;5043761;28;20084;-73
2023/12/15 15:34:28;;;;;;;29.55;6.53;;;;;;;;;;5049280;28;20143;-73
2023/12/15 15:37:14;;;;;;;29.38;7.15;;;;;;;;;;5052749;28;20029;-73
2023/12/15 15:39:59;;;;;;;19.20;6.63;;;;;;;;;;5045270;28;20059;-73
2023/12/15 15:42:45;;;;;;;23.50;4.80;;;;;;;;;;5045971;28;20490;-73
2023/12/15 15:45:30;;;;;;;26.13;4.72;;;;;;;;;;5042733;28;20466;-73
2023/12/15 15:48:16;;;;;;;14.70;4.10;;;;;;;;;;5038498;28;20096;-70
2023/12/15 15:51:02;;;;;;;21.85;3.28;;;;;;;;;;5040863;28;20025;-70
2023/12/15 15:53:48;;;;;;;20.20;3.42;;;;;;;;;;5040200;28;20490;-71
2023/12/15 15:56:34;;;;;;;18.67;3.78;;;;;;;;;;5049468;28;20028;-70
2023/12/15 15:59:19;;;;;;;12.25;2.67;;;;;;;;;;5041267;28;20486;-70
2023/12/15 16:02:05;;;;;;;22.83;4.03;;;;;;;;;;5051733;28;20052;-70
2023/12/15 16:04:52;;;;;;;21.70;3.22;;;;;;;;;;5041568;28;20033;-70
2023/12/15 16:07:37;;;;;;;20.77;3.33;;;;;;;;;;5051112;28;20021;-70
2023/12/15 16:10:23;;;;;;;20.80;3.58;;;;;;;;;;5053678;28;20031;-70
2023/12/15 16:13:10;;;;;;;50.17;12.35;;;;;;;;;;5051176;28;20033;-69